Time;durP1;ratioP1;P1;durP2;ratioP2;P2;SDS_P1;SDS_P2;PMS_P1;PMS_P2;Temp;Humidity;BMP_temperature;BMP_pressure;BME280_temperature;BME280_humidity;BME280_pressure;Samples;Min_cycle;Max_cycle;Signal;HPM_P1;HPM_P2
2023/10/07 00:00:24;;;;;;;4.90;2.25;;;;;;;;;;5031468;28;20498;-77
2023/10/07 00:02:50;;;;;;;5.25;2.10;;;;;;;;;;5031344;28;20089;-77
2023/10/07 00:05:16;;;;;;;7.60;2.10;;;;;;;;;;5031483;28;20029;-77
2023/10/07 00:07:44;;;;;;;6.45;2.25;;;;;;;;;;5032179;28;20045;-77
2023/10/07 00:10:14;;;;;;;6.22;1.83;;;;;;;;;;5031024;28;20052;-76
2023/10/07 00:12:40;;;;;;;10.70;2.60;;;;;;;;;;5031917;28;20033;-77
2023/10/07 00:15:05;;;;;;;7.75;2.30;;;;;;;;;;5032151;28;20060;-77
2023/10/07 00:17:30;;;;;;;5.78;1.90;;;;;;;;;;5036328;28;20076;-77
2023/10/07 00:19:57;;;;;;;6.67;2.40;;;;;;;;;;5030689;28;20048;-77
2023/10/07 00:22:24;;;;;;;6.50;2.55;;;;;;;;;;5031260;28;20380;-77
2023/10/07 00:24:52;;;;;;;6.00;2.42;;;;;;;;;;5032172;28;20125;-77
2023/10/07 00:29:54;;;;;;;6.82;2.78;;;;;;;;;;5029424;28;20113;-77
2023/10/07 00:32:32;;;;;;;6.20;2.25;;;;;;;;;;5031754;28;20033;-77
2023/10/07 00:34:59;;;;;;;4.85;2.42;;;;;;;;;;5024803;28;20060;-77
2023/10/07 00:37:25;;;;;;;6.47;2.20;;;;;;;;;;5031901;28;20497;-77
2023/10/07 00:39:52;;;;;;;7.20;2.33;;;;;;;;;;5031657;28;20036;-77
2023/10/07 00:42:18;;;;;;;10.38;2.90;;;;;;;;;;5028726;28;20446;-77
2023/10/07 00:44:47;;;;;;;5.38;2.25;;;;;;;;;;5031504;28;20057;-77
2023/10/07 00:47:12;;;;;;;5.93;2.22;;;;;;;;;;5031758;28;20034;-77
2023/10/07 00:49:46;;;;;;;5.57;2.25;;;;;;;;;;5029114;28;20047;-77
2023/10/07 00:52:22;;;;;;;8.20;2.38;;;;;;;;;;5028243;28;20036;-77
2023/10/07 00:57:24;;;;;;;6.35;2.10;;;;;;;;;;5029866;28;20029;-77
2023/10/07 00:59:51;;;;;;;5.70;2.67;;;;;;;;;;5031928;28;20097;-77
2023/10/07 01:02:28;;;;;;;7.93;2.55;;;;;;;;;;5030718;28;20021;-77
2023/10/07 01:04:54;;;;;;;7.40;2.35;;;;;;;;;;5030480;28;20120;-77
2023/10/07 01:07:19;;;;;;;5.77;2.27;;;;;;;;;;5031779;28;20053;-77
2023/10/07 01:09:58;;;;;;;5.72;2.30;;;;;;;;;;5030978;28;20268;-78
2023/10/07 01:12:25;;;;;;;5.60;2.30;;;;;;;;;;5032802;28;20118;-78
2023/10/07 01:14:52;;;;;;;6.13;2.08;;;;;;;;;;5032409;28;20144;-78
2023/10/07 01:17:23;;;;;;;6.68;2.35;;;;;;;;;;5033002;28;20553;-78
2023/10/07 01:19:52;;;;;;;8.15;2.30;;;;;;;;;;5031269;28;20409;-78
2023/10/07 01:22:21;;;;;;;7.05;2.92;;;;;;;;;;5031968;28;20409;-77
2023/10/07 01:24:49;;;;;;;5.72;2.72;;;;;;;;;;5032149;28;20031;-78
2023/10/07 01:27:19;;;;;;;4.95;2.30;;;;;;;;;;5032700;28;20021;-78
2023/10/07 01:29:48;;;;;;;6.72;2.22;;;;;;;;;;5033593;28;20034;-78
2023/10/07 01:32:16;;;;;;;5.40;2.30;;;;;;;;;;5035211;28;20485;-78
2023/10/07 01:34:47;;;;;;;7.22;2.28;;;;;;;;;;5033238;28;20073;-78
2023/10/07 01:37:15;;;;;;;5.63;2.70;;;;;;;;;;5036634;28;20497;-78
2023/10/07 01:39:40;;;;;;;5.43;2.13;;;;;;;;;;5020775;28;20045;-78
2023/10/07 01:42:14;;;;;;;7.68;2.30;;;;;;;;;;5035917;28;20025;-78
2023/10/07 01:44:41;;;;;;;4.82;1.92;;;;;;;;;;5044865;28;20033;-78
2023/10/07 01:47:16;;;;;;;4.28;2.08;;;;;;;;;;5035605;28;20040;-78
2023/10/07 01:49:42;;;;;;;5.30;2.15;;;;;;;;;;5023548;28;20030;-78
2023/10/07 01:52:09;;;;;;;5.30;2.03;;;;;;;;;;5034914;28;20036;-78
2023/10/07 01:54:34;;;;;;;7.55;2.50;;;;;;;;;;5034453;28;20444;-78
2023/10/07 01:57:04;;;;;;;4.97;1.88;;;;;;;;;;5044054;28;20036;-78
2023/10/07 01:59:30;;;;;;;5.13;1.73;;;;;;;;;;5035196;28;20103;-79
2023/10/07 02:02:04;;;;;;;5.43;2.17;;;;;;;;;;5018427;28;20059;-78
2023/10/07 02:04:30;;;;;;;5.28;2.13;;;;;;;;;;5048033;28;20029;-78
2023/10/07 02:06:56;;;;;;;6.40;2.13;;;;;;;;;;5034580;28;20052;-78
2023/10/07 02:09:27;;;;;;;8.13;2.22;;;;;;;;;;5033971;28;20409;-78
2023/10/07 02:11:56;;;;;;;4.53;2.08;;;;;;;;;;5032367;28;20508;-78
2023/10/07 02:14:24;;;;;;;5.00;2.15;;;;;;;;;;5017631;28;20029;-78
2023/10/07 02:16:50;;;;;;;6.95;2.10;;;;;;;;;;5035746;28;20108;-78
2023/10/07 02:19:26;;;;;;;5.28;2.10;;;;;;;;;;5034685;28;20064;-78
2023/10/07 02:21:52;;;;;;;8.13;2.17;;;;;;;;;;5034157;28;20128;-78
2023/10/07 02:24:21;;;;;;;5.93;2.17;;;;;;;;;;5018008;28;20044;-78
2023/10/07 02:26:53;;;;;;;7.00;2.40;;;;;;;;;;5030582;28;20394;-78
2023/10/07 02:29:19;;;;;;;5.43;2.33;;;;;;;;;;5035243;28;20032;-78
2023/10/07 02:31:44;;;;;;;6.32;2.50;;;;;;;;;;5035695;28;20034;-78
2023/10/07 02:34:21;;;;;;;4.85;1.75;;;;;;;;;;5034573;28;20400;-77
2023/10/07 02:36:52;;;;;;;6.18;2.53;;;;;;;;;;5049530;28;20064;-78
2023/10/07 02:39:24;;;;;;;7.47;2.40;;;;;;;;;;5031693;28;20030;-78
2023/10/07 02:41:49;;;;;;;6.57;2.50;;;;;;;;;;5041156;28;20403;-78
2023/10/07 02:44:25;;;;;;;6.25;2.45;;;;;;;;;;5040812;28;20116;-77
2023/10/07 02:46:52;;;;;;;5.30;2.20;;;;;;;;;;5040816;28;20026;-77
2023/10/07 02:49:20;;;;;;;5.85;2.17;;;;;;;;;;5033678;28;20025;-78
2023/10/07 02:51:47;;;;;;;6.50;2.20;;;;;;;;;;5042839;28;20033;-78
2023/10/07 02:54:17;;;;;;;5.68;2.40;;;;;;;;;;5034055;28;20552;-78
2023/10/07 02:56:44;;;;;;;6.25;2.35;;;;;;;;;;5034664;28;20048;-77
2023/10/07 02:59:28;;;;;;;5.78;2.10;;;;;;;;;;5033538;28;20037;-77
2023/10/07 03:07:41;;;;;;;7.28;2.20;;;;;;;;;;5032789;28;20400;-78
2023/10/07 03:10:19;;;;;;;6.70;2.58;;;;;;;;;;5033853;28;20068;-77
2023/10/07 03:12:48;;;;;;;4.85;2.17;;;;;;;;;;5030666;28;20048;-78
2023/10/07 03:15:21;;;;;;;7.53;2.60;;;;;;;;;;5033110;28;20025;-78
2023/10/07 03:17:46;;;;;;;5.68;2.45;;;;;;;;;;5032741;28;20034;-77
2023/10/07 03:20:46;;;;;;;6.40;2.30;;;;;;;;;;5034548;28;20452;-77
2023/10/07 03:28:16;;;;;;;6.22;2.45;;;;;;;;;;5033190;28;20021;-77
2023/10/07 03:30:46;;;;;;;8.52;2.60;;;;;;;;;;5032483;28;20034;-77
2023/10/07 03:33:15;;;;;;;5.63;2.42;;;;;;;;;;5024764;28;20029;-77
2023/10/07 03:36:07;;;;;;;6.28;2.40;;;;;;;;;;5033129;28;20124;-77
2023/10/07 03:38:32;;;;;;;6.72;2.45;;;;;;;;;;5031774;28;20073;-78
2023/10/07 03:40:57;;;;;;;6.95;2.50;;;;;;;;;;5040410;28;20037;-78
2023/10/07 03:43:26;;;;;;;5.57;2.60;;;;;;;;;;5032497;28;20992;-78
2023/10/07 03:45:55;;;;;;;5.97;2.70;;;;;;;;;;5031813;28;20108;-78
2023/10/07 03:48:23;;;;;;;6.72;2.35;;;;;;;;;;5033618;28;20025;-78
2023/10/07 03:51:12;;;;;;;5.93;2.15;;;;;;;;;;5031041;28;20433;-78
2023/10/07 03:53:47;;;;;;;6.80;2.28;;;;;;;;;;5042853;28;20112;-78
2023/10/07 03:56:12;;;;;;;7.45;2.28;;;;;;;;;;5030454;28;20025;-78
2023/10/07 03:58:38;;;;;;;6.43;2.55;;;;;;;;;;5032085;28;20040;-77
2023/10/07 04:01:22;;;;;;;6.65;2.45;;;;;;;;;;5032046;28;20037;-78
2023/10/07 04:03:49;;;;;;;9.68;2.65;;;;;;;;;;5031899;28;20065;-78
2023/10/07 04:06:16;;;;;;;6.38;2.50;;;;;;;;;;5033108;28;20029;-78
2023/10/07 04:08:41;;;;;;;5.88;2.13;;;;;;;;;;5043249;28;20490;-77
2023/10/07 04:11:16;;;;;;;7.77;2.83;;;;;;;;;;5032986;28;20063;-78
2023/10/07 04:13:43;;;;;;;5.78;2.60;;;;;;;;;;5031851;28;20278;-77
2023/10/07 04:16:22;;;;;;;7.65;2.55;;;;;;;;;;5030089;28;20099;-77
2023/10/07 04:18:47;;;;;;;6.88;2.58;;;;;;;;;;5031877;28;20041;-77
2023/10/07 04:21:12;;;;;;;5.80;2.00;;;;;;;;;;5033024;28;20393;-78
2023/10/07 04:23:43;;;;;;;7.20;2.60;;;;;;;;;;5034539;28;20030;-78
2023/10/07 04:26:10;;;;;;;5.15;2.30;;;;;;;;;;5033068;28;20272;-79
2023/10/07 04:28:35;;;;;;;7.13;2.67;;;;;;;;;;5032229;28;20072;-78
2023/10/07 04:31:09;;;;;;;6.65;2.58;;;;;;;;;;5032817;28;20421;-78
2023/10/07 04:33:40;;;;;;;7.32;2.50;;;;;;;;;;5030789;28;20057;-78
2023/10/07 04:36:10;;;;;;;8.27;2.78;;;;;;;;;;5031892;28;20075;-78
2023/10/07 04:38:55;;;;;;;7.35;2.70;;;;;;;;;;5025903;28;20033;-78
2023/10/07 04:43:50;;;;;;;5.93;2.45;;;;;;;;;;5039886;28;20037;-78
2023/10/07 04:46:29;;;;;;;6.78;2.45;;;;;;;;;;5030797;28;20537;-78
2023/10/07 04:48:55;;;;;;;6.72;2.63;;;;;;;;;;5034294;28;20622;-78
2023/10/07 04:51:46;;;;;;;5.47;2.22;;;;;;;;;;5032856;28;20401;-77
2023/10/07 04:54:12;;;;;;;7.20;2.47;;;;;;;;;;5032663;28;20033;-78
2023/10/07 04:56:39;;;;;;;9.77;2.70;;;;;;;;;;5029874;28;20037;-78
2023/10/07 04:59:09;;;;;;;6.22;2.80;;;;;;;;;;5029963;28;20033;-78
2023/10/07 05:01:34;;;;;;;6.45;2.80;;;;;;;;;;5031008;28;20117;-78
2023/10/07 05:04:09;;;;;;;6.47;2.70;;;;;;;;;;5030861;28;20098;-78
2023/10/07 05:06:35;;;;;;;8.05;2.58;;;;;;;;;;5028920;28;20820;-78
2023/10/07 05:09:09;;;;;;;8.48;2.83;;;;;;;;;;5037041;28;20064;-78
2023/10/07 05:11:37;;;;;;;7.82;3.00;;;;;;;;;;5029049;28;20516;-78
2023/10/07 05:14:02;;;;;;;8.23;3.00;;;;;;;;;;5030205;28;20125;-78
2023/10/07 05:16:28;;;;;;;9.40;3.05;;;;;;;;;;5031244;28;20057;-78
2023/10/07 05:18:53;;;;;;;7.18;2.90;;;;;;;;;;5031358;28;20041;-78
2023/10/07 05:21:21;;;;;;;7.38;2.45;;;;;;;;;;5031252;28;20040;-78
2023/10/07 05:23:46;;;;;;;7.43;2.65;;;;;;;;;;5031048;28;20029;-77
2023/10/07 05:26:17;;;;;;;10.83;2.20;;;;;;;;;;5031336;28;20091;-78
2023/10/07 05:28:44;;;;;;;5.53;2.30;;;;;;;;;;5031356;28;20286;-78
2023/10/07 05:31:11;;;;;;;6.00;2.58;;;;;;;;;;5031023;28;20398;-78
2023/10/07 05:33:36;;;;;;;5.75;3.10;;;;;;;;;;5030683;28;20041;-78
2023/10/07 05:36:11;;;;;;;6.25;2.28;;;;;;;;;;5038328;28;20033;-78
2023/10/07 05:38:37;;;;;;;6.05;2.83;;;;;;;;;;5040821;28;20029;-78
2023/10/07 05:41:02;;;;;;;5.90;2.20;;;;;;;;;;5030235;28;20583;-78
2023/10/07 05:43:29;;;;;;;5.75;2.70;;;;;;;;;;5015208;28;20413;-78
2023/10/07 05:45:54;;;;;;;5.70;2.20;;;;;;;;;;5031092;28;20577;-78
2023/10/07 05:48:20;;;;;;;8.18;2.65;;;;;;;;;;5030049;28;20061;-78
2023/10/07 05:50:46;;;;;;;6.60;2.58;;;;;;;;;;5037752;28;20510;-77
2023/10/07 05:53:11;;;;;;;6.13;2.67;;;;;;;;;;5031313;28;20036;-77
2023/10/07 05:55:36;;;;;;;8.52;2.83;;;;;;;;;;5031185;28;20573;-78
2023/10/07 05:58:02;;;;;;;7.63;3.15;;;;;;;;;;5031487;28;20053;-77
2023/10/07 06:00:31;;;;;;;7.57;2.60;;;;;;;;;;5029429;28;20045;-78
2023/10/07 06:02:57;;;;;;;9.07;2.78;;;;;;;;;;5027163;28;20492;-77
2023/10/07 06:05:27;;;;;;;6.13;2.97;;;;;;;;;;5026757;28;20099;-78
2023/10/07 06:07:57;;;;;;;5.97;2.80;;;;;;;;;;5031521;28;20021;-77
2023/10/07 06:10:24;;;;;;;7.30;2.58;;;;;;;;;;5027581;28;20029;-78
2023/10/07 06:12:49;;;;;;;6.97;2.67;;;;;;;;;;5030863;28;20068;-77
2023/10/07 06:15:16;;;;;;;6.75;2.40;;;;;;;;;;5031336;28;20064;-78
2023/10/07 06:17:42;;;;;;;6.25;2.72;;;;;;;;;;5033162;28;20033;-77
2023/10/07 06:20:14;;;;;;;8.07;2.70;;;;;;;;;;5034741;28;20032;-77
2023/10/07 06:22:45;;;;;;;11.02;3.55;;;;;;;;;;5034220;28;20034;-77
2023/10/07 06:25:12;;;;;;;6.07;2.22;;;;;;;;;;5034528;28;20051;-77
2023/10/07 06:27:38;;;;;;;6.97;2.45;;;;;;;;;;5033339;28;20029;-78
2023/10/07 06:30:03;;;;;;;7.32;2.55;;;;;;;;;;5034511;28;20034;-78
2023/10/07 06:32:43;;;;;;;5.80;2.38;;;;;;;;;;5035563;28;20033;-78
2023/10/07 06:35:13;;;;;;;8.05;2.47;;;;;;;;;;5048172;28;20572;-79
2023/10/07 06:37:38;;;;;;;5.28;2.10;;;;;;;;;;5033915;28;20033;-79
2023/10/07 06:40:13;;;;;;;5.18;2.33;;;;;;;;;;5033967;28;20758;-79
2023/10/07 06:42:40;;;;;;;10.68;2.58;;;;;;;;;;5031783;28;20053;-79
2023/10/07 06:45:08;;;;;;;9.80;2.25;;;;;;;;;;5033236;28;20112;-78
2023/10/07 06:47:34;;;;;;;5.63;2.25;;;;;;;;;;5033497;28;20716;-79
2023/10/07 06:50:03;;;;;;;7.13;2.65;;;;;;;;;;5032347;28;20121;-79
2023/10/07 06:52:28;;;;;;;7.85;2.40;;;;;;;;;;5033584;28;20037;-79
2023/10/07 06:54:54;;;;;;;4.10;2.30;;;;;;;;;;5033319;28;20087;-79
2023/10/07 06:57:19;;;;;;;6.68;2.40;;;;;;;;;;5030238;28;20112;-79
2023/10/07 06:59:45;;;;;;;6.47;2.63;;;;;;;;;;5032552;28;20112;-79
2023/10/07 07:02:11;;;;;;;7.55;2.60;;;;;;;;;;5028190;28;20030;-78
2023/10/07 07:04:38;;;;;;;5.82;2.35;;;;;;;;;;5030967;28;20029;-79
2023/10/07 07:07:10;;;;;;;7.65;2.80;;;;;;;;;;5028432;28;20033;-79
2023/10/07 07:12:16;;;;;;;9.77;3.90;;;;;;;;;;5032798;28;20029;-79
2023/10/07 07:14:46;;;;;;;6.40;2.80;;;;;;;;;;5031859;28;20033;-79
2023/10/07 07:17:29;;;;;;;6.80;3.05;;;;;;;;;;5032936;28;20029;-80
2023/10/07 07:22:36;;;;;;;8.13;2.70;;;;;;;;;;5033294;28;20052;-79
2023/10/07 07:25:05;;;;;;;8.80;3.05;;;;;;;;;;5032645;28;20029;-79
2023/10/07 07:27:36;;;;;;;7.55;2.78;;;;;;;;;;5031353;28;20108;-79
2023/10/07 07:30:02;;;;;;;9.38;2.50;;;;;;;;;;5031325;28;20029;-79
2023/10/07 07:32:33;;;;;;;7.50;2.55;;;;;;;;;;5032235;28;20131;-79
2023/10/07 07:35:02;;;;;;;6.78;2.47;;;;;;;;;;5028407;28;20390;-78
2023/10/07 07:37:31;;;;;;;9.38;3.40;;;;;;;;;;5032093;28;20033;-79
2023/10/07 07:39:58;;;;;;;8.40;3.13;;;;;;;;;;5032604;28;20033;-79
2023/10/07 07:42:27;;;;;;;9.93;3.25;;;;;;;;;;5032321;28;20469;-79
2023/10/07 07:44:56;;;;;;;7.55;3.15;;;;;;;;;;5034955;28;20028;-79
2023/10/07 07:47:21;;;;;;;6.10;2.90;;;;;;;;;;5032538;28;20087;-79
2023/10/07 07:49:47;;;;;;;7.65;3.58;;;;;;;;;;5027578;28;20033;-79
2023/10/07 07:52:15;;;;;;;6.95;3.15;;;;;;;;;;5038869;28;20104;-80
2023/10/07 07:54:40;;;;;;;7.68;2.78;;;;;;;;;;5032289;28;20489;-79
2023/10/07 07:57:07;;;;;;;9.48;2.95;;;;;;;;;;5032198;28;20061;-79
2023/10/07 07:59:33;;;;;;;9.70;3.33;;;;;;;;;;5030687;28;20041;-79
2023/10/07 08:02:11;;;;;;;8.93;2.80;;;;;;;;;;5031417;28;20033;-80
2023/10/07 08:04:46;;;;;;;6.00;2.95;;;;;;;;;;5031880;28;20038;-80
2023/10/07 08:07:18;;;;;;;8.00;3.80;;;;;;;;;;5028532;28;20022;-80
2023/10/07 08:09:44;;;;;;;7.28;3.50;;;;;;;;;;5029472;28;20043;-79
2023/10/07 08:12:09;;;;;;;6.38;2.60;;;;;;;;;;5030122;28;20021;-79
2023/10/07 08:14:38;;;;;;;7.13;2.20;;;;;;;;;;5031360;28;20033;-80
2023/10/07 08:17:08;;;;;;;6.15;2.42;;;;;;;;;;5031361;28;20032;-79
2023/10/07 08:19:34;;;;;;;10.75;3.15;;;;;;;;;;5031471;28;20037;-79
2023/10/07 08:22:02;;;;;;;5.90;2.50;;;;;;;;;;5030369;28;20396;-79
2023/10/07 08:24:30;;;;;;;6.28;2.60;;;;;;;;;;5031020;28;20051;-79
2023/10/07 08:26:59;;;;;;;7.72;2.47;;;;;;;;;;5030513;28;20028;-79
2023/10/07 08:29:32;;;;;;;8.05;2.63;;;;;;;;;;5029287;28;20021;-79
2023/10/07 08:32:00;;;;;;;8.65;3.20;;;;;;;;;;5031414;28;20071;-79
2023/10/07 08:34:33;;;;;;;7.78;3.03;;;;;;;;;;5031791;28;20075;-79
2023/10/07 08:37:02;;;;;;;6.47;2.13;;;;;;;;;;5031582;28;20060;-80
2023/10/07 08:39:28;;;;;;;7.50;2.90;;;;;;;;;;5029960;28;20438;-80
2023/10/07 08:41:57;;;;;;;5.57;2.55;;;;;;;;;;5030907;28;20084;-80
2023/10/07 08:44:31;;;;;;;5.93;2.70;;;;;;;;;;5026494;28;20124;-80
2023/10/07 08:47:03;;;;;;;5.03;2.00;;;;;;;;;;5031307;28;20041;-80
2023/10/07 08:49:29;;;;;;;6.78;2.83;;;;;;;;;;5031545;28;20033;-80
2023/10/07 08:51:56;;;;;;;6.55;2.72;;;;;;;;;;5030774;28;20047;-80
2023/10/07 08:54:31;;;;;;;5.30;2.53;;;;;;;;;;5030259;28;20025;-80
2023/10/07 08:57:08;;;;;;;7.70;2.20;;;;;;;;;;5027884;28;20580;-80
2023/10/07 08:59:34;;;;;;;6.40;2.80;;;;;;;;;;5031332;28;20041;-80
2023/10/07 09:02:00;;;;;;;7.83;2.80;;;;;;;;;;5028777;28;20601;-79
2023/10/07 09:04:31;;;;;;;5.55;2.55;;;;;;;;;;5028024;28;20652;-79
2023/10/07 09:07:00;;;;;;;6.35;3.00;;;;;;;;;;5030636;28;20083;-80
2023/10/07 09:09:43;;;;;;;7.45;2.55;;;;;;;;;;5030968;28;20051;-80
2023/10/07 09:12:28;;;;;;;7.53;2.83;;;;;;;;;;5030515;28;20018;-80
2023/10/07 09:14:57;;;;;;;5.25;2.17;;;;;;;;;;5028476;28;20486;-80
2023/10/07 09:17:26;;;;;;;8.10;3.08;;;;;;;;;;5029654;28;20080;-80
2023/10/07 09:19:58;;;;;;;6.50;2.75;;;;;;;;;;5036023;28;20505;-80
2023/10/07 09:22:24;;;;;;;7.00;2.20;;;;;;;;;;5028594;28;20033;-80
2023/10/07 09:24:54;;;;;;;5.45;2.50;;;;;;;;;;5030846;28;20025;-79
2023/10/07 09:27:36;;;;;;;8.93;2.72;;;;;;;;;;5026357;28;20433;-80
2023/10/07 09:30:14;;;;;;;7.55;2.50;;;;;;;;;;5044633;28;20030;-80
2023/10/07 09:32:39;;;;;;;7.80;2.35;;;;;;;;;;5024314;28;20112;-79
2023/10/07 09:35:19;;;;;;;8.65;2.75;;;;;;;;;;5030683;28;20124;-80
2023/10/07 09:37:45;;;;;;;6.07;2.28;;;;;;;;;;5029583;28;20040;-80
2023/10/07 09:41:07;;;;;;;4.38;2.20;;;;;;;;;;5030218;28;20033;-80
2023/10/07 09:43:07;;;;;;;5.03;2.47;;;;;;;;;;5026108;28;20050;-80
2023/10/07 09:45:34;;;;;;;7.22;2.30;;;;;;;;;;5029528;28;20037;-81
2023/10/07 09:48:01;;;;;;;4.90;2.10;;;;;;;;;;5030606;28;20033;-81
2023/10/07 09:50:33;;;;;;;7.20;2.42;;;;;;;;;;5031404;28;20053;-81
2023/10/07 09:52:59;;;;;;;;;;;;;;;;;;5032780;28;20505;-80
2023/10/07 09:55:27;;;;;;;8.02;2.97;;;;;;;;;;5034400;28;19916;-81
2023/10/07 09:57:55;;;;;;;6.80;2.85;;;;;;;;;;5033099;28;20067;-81
2023/10/07 10:03:20;;;;;;;5.47;2.28;;;;;;;;;;5033435;28;20698;-80
2023/10/07 10:06:07;;;;;;;7.28;2.38;;;;;;;;;;5031797;28;20030;-81
2023/10/07 10:08:57;;;;;;;6.32;2.17;;;;;;;;;;5032228;28;20493;-80
2023/10/07 10:11:44;;;;;;;5.43;2.30;;;;;;;;;;5046855;28;20025;-80
2023/10/07 10:16:52;;;;;;;5.55;2.00;;;;;;;;;;5033965;28;20474;-81
2023/10/07 10:19:29;;;;;;;8.02;2.25;;;;;;;;;;5048339;28;20036;-81
2023/10/07 10:21:55;;;;;;;5.82;2.70;;;;;;;;;;5032371;28;20045;-81
2023/10/07 10:24:23;;;;;;;6.10;2.67;;;;;;;;;;5033703;28;20036;-81
2023/10/07 10:26:50;;;;;;;6.53;2.42;;;;;;;;;;5033897;28;20497;-80
2023/10/07 10:29:20;;;;;;;7.10;3.00;;;;;;;;;;5034002;28;20034;-81
2023/10/07 10:31:50;;;;;;;8.80;2.65;;;;;;;;;;5034090;28;20045;-81
2023/10/07 10:34:15;;;;;;;7.32;2.90;;;;;;;;;;5032371;28;20468;-81
2023/10/07 10:36:48;;;;;;;6.13;2.73;;;;;;;;;;5033674;28;20133;-81
2023/10/07 10:39:24;;;;;;;5.47;2.50;;;;;;;;;;5033894;28;20283;-81
2023/10/07 10:41:51;;;;;;;5.43;2.30;;;;;;;;;;5031056;28;20121;-80
2023/10/07 10:44:17;;;;;;;6.57;2.72;;;;;;;;;;5033054;28;20504;-81
2023/10/07 10:46:46;;;;;;;6.68;2.60;;;;;;;;;;5033730;28;20032;-81
2023/10/07 10:49:12;;;;;;;7.13;2.65;;;;;;;;;;5040492;28;20026;-82
2023/10/07 10:51:45;;;;;;;5.32;2.15;;;;;;;;;;5033486;28;20038;-82
2023/10/07 10:54:14;;;;;;;7.75;2.80;;;;;;;;;;5031661;28;20033;-81
2023/10/07 10:56:47;;;;;;;7.40;2.50;;;;;;;;;;5045133;28;20041;-81
2023/10/07 10:59:14;;;;;;;8.57;3.20;;;;;;;;;;5033098;28;20043;-81
2023/10/07 11:01:42;;;;;;;5.13;2.60;;;;;;;;;;5031526;28;20033;-81
2023/10/07 11:04:07;;;;;;;7.97;2.88;;;;;;;;;;5033037;28;20039;-82
2023/10/07 11:06:32;;;;;;;5.83;2.30;;;;;;;;;;5031052;28;20025;-81
2023/10/07 11:08:58;;;;;;;6.20;2.20;;;;;;;;;;5032187;28;20295;-81
2023/10/07 11:11:29;;;;;;;7.10;2.35;;;;;;;;;;5031905;28;20280;-81
2023/10/07 11:13:54;;;;;;;6.43;2.35;;;;;;;;;;5031666;28;20041;-81
2023/10/07 11:16:22;;;;;;;7.70;2.92;;;;;;;;;;5032992;28;20079;-81
2023/10/07 11:18:47;;;;;;;5.35;2.53;;;;;;;;;;5033010;28;20025;-81
2023/10/07 11:21:15;;;;;;;9.10;2.60;;;;;;;;;;5032725;28;20040;-81
2023/10/07 11:24:01;;;;;;;8.00;2.83;;;;;;;;;;5028368;28;20508;-82
2023/10/07 11:26:27;;;;;;;6.55;2.50;;;;;;;;;;5031905;28;20037;-82
2023/10/07 11:28:56;;;;;;;5.78;2.50;;;;;;;;;;5032628;28;20029;-82
2023/10/07 11:31:27;;;;;;;6.35;2.60;;;;;;;;;;5032675;28;20040;-81
2023/10/07 11:33:52;;;;;;;6.90;2.70;;;;;;;;;;5029738;28;20041;-82
2023/10/07 11:36:18;;;;;;;9.43;2.50;;;;;;;;;;5032833;28;20028;-81
2023/10/07 11:38:43;;;;;;;7.35;2.30;;;;;;;;;;5032773;28;20608;-81
2023/10/07 11:41:10;;;;;;;7.47;2.47;;;;;;;;;;5032437;28;20519;-80
2023/10/07 11:43:45;;;;;;;6.07;2.30;;;;;;;;;;5031888;28;20307;-80
2023/10/07 11:46:13;;;;;;;6.93;3.38;;;;;;;;;;5032084;28;20033;-82
2023/10/07 11:48:45;;;;;;;9.65;2.75;;;;;;;;;;5032398;28;20088;-82
2023/10/07 11:51:11;;;;;;;6.93;2.50;;;;;;;;;;5031790;28;20029;-82
2023/10/07 11:53:39;;;;;;;4.75;2.28;;;;;;;;;;5030777;28;20139;-81
2023/10/07 11:56:06;;;;;;;4.80;2.30;;;;;;;;;;5031005;28;20133;-82
2023/10/07 11:58:32;;;;;;;5.32;2.45;;;;;;;;;;5030741;28;20120;-82
2023/10/07 12:00:57;;;;;;;5.97;2.55;;;;;;;;;;5032221;28;20040;-82
2023/10/07 12:03:25;;;;;;;6.18;2.95;;;;;;;;;;5031369;28;20037;-82
2023/10/07 12:05:50;;;;;;;6.43;2.55;;;;;;;;;;5031985;28;20104;-82
2023/10/07 12:08:15;;;;;;;4.82;2.15;;;;;;;;;;5032216;28;20509;-82
2023/10/07 12:10:41;;;;;;;7.60;2.20;;;;;;;;;;5031449;28;20478;-82
2023/10/07 12:13:14;;;;;;;8.52;3.67;;;;;;;;;;5031042;28;20029;-82
2023/10/07 12:15:42;;;;;;;5.28;2.72;;;;;;;;;;5032094;28;20041;-82
2023/10/07 12:18:07;;;;;;;7.43;3.72;;;;;;;;;;5031875;28;20030;-82
2023/10/07 12:20:32;;;;;;;9.73;4.85;;;;;;;;;;5032099;28;20033;-82
2023/10/07 12:22:58;;;;;;;9.02;3.75;;;;;;;;;;5031352;28;20033;-81
2023/10/07 12:25:23;;;;;;;8.38;2.67;;;;;;;;;;5031799;28;20145;-82
2023/10/07 12:27:49;;;;;;;6.55;3.17;;;;;;;;;;5031831;28;20052;-82
2023/10/07 12:30:20;;;;;;;4.95;2.28;;;;;;;;;;5031624;28;20108;-81
2023/10/07 12:32:46;;;;;;;5.07;2.55;;;;;;;;;;5026958;28;20033;-82
2023/10/07 12:35:13;;;;;;;6.00;3.20;;;;;;;;;;5031612;28;20036;-82
2023/10/07 12:37:38;;;;;;;5.90;2.28;;;;;;;;;;5031604;28;20486;-81
2023/10/07 12:40:05;;;;;;;5.40;2.00;;;;;;;;;;5029652;28;20120;-82
2023/10/07 12:42:32;;;;;;;7.70;3.80;;;;;;;;;;5031396;28;20040;-82
2023/10/07 12:44:59;;;;;;;7.65;4.80;;;;;;;;;;5030458;28;20034;-83
2023/10/07 12:47:24;;;;;;;5.05;2.65;;;;;;;;;;5031501;28;20416;-82
2023/10/07 12:49:53;;;;;;;6.87;2.50;;;;;;;;;;5030176;28;20030;-82
2023/10/07 12:52:19;;;;;;;7.05;3.00;;;;;;;;;;5029610;28;20275;-82
2023/10/07 12:54:44;;;;;;;6.70;2.50;;;;;;;;;;5031511;28;20041;-83
2023/10/07 12:57:13;;;;;;;6.22;2.63;;;;;;;;;;5031285;28;20061;-82
2023/10/07 12:59:42;;;;;;;7.72;2.75;;;;;;;;;;5031132;28;20041;-82
2023/10/07 13:02:09;;;;;;;6.32;2.78;;;;;;;;;;5031258;28;20552;-82
2023/10/07 13:04:34;;;;;;;7.15;2.45;;;;;;;;;;5028758;28;20382;-82
2023/10/07 13:07:05;;;;;;;4.75;2.20;;;;;;;;;;5031103;28;20039;-82
2023/10/07 13:09:33;;;;;;;7.75;2.53;;;;;;;;;;5031243;28;20573;-82
2023/10/07 13:11:58;;;;;;;3.95;1.80;;;;;;;;;;5031122;28;20107;-82
2023/10/07 13:14:26;;;;;;;5.97;2.33;;;;;;;;;;5029722;28;20502;-82
2023/10/07 13:16:56;;;;;;;6.95;2.42;;;;;;;;;;5030485;28;20065;-82
2023/10/07 13:19:26;;;;;;;5.80;2.40;;;;;;;;;;5030221;28;20037;-83
2023/10/07 13:21:51;;;;;;;5.43;2.35;;;;;;;;;;5031116;28;20120;-83
2023/10/07 13:24:16;;;;;;;5.47;2.43;;;;;;;;;;5031420;28;20113;-83
2023/10/07 13:26:42;;;;;;;5.85;2.47;;;;;;;;;;5035340;28;20410;-83
2023/10/07 13:29:10;;;;;;;6.00;2.40;;;;;;;;;;5033884;28;20037;-82
2023/10/07 13:31:36;;;;;;;5.18;2.15;;;;;;;;;;5034061;28;20409;-83
2023/10/07 13:34:04;;;;;;;5.13;2.47;;;;;;;;;;5033020;28;20112;-82
2023/10/07 13:36:29;;;;;;;8.00;2.33;;;;;;;;;;5034232;28;20026;-82
2023/10/07 13:38:57;;;;;;;8.15;2.53;;;;;;;;;;5035269;28;20501;-82
2023/10/07 13:41:23;;;;;;;7.63;2.72;;;;;;;;;;5034005;28;20026;-83
2023/10/07 13:43:48;;;;;;;8.45;2.60;;;;;;;;;;5033579;28;20129;-82
2023/10/07 13:46:13;;;;;;;4.45;2.15;;;;;;;;;;5033062;28;20040;-83
2023/10/07 13:48:38;;;;;;;6.83;2.50;;;;;;;;;;5033931;28;20424;-82
2023/10/07 13:51:05;;;;;;;5.75;1.83;;;;;;;;;;5034477;28;20272;-83
2023/10/07 13:53:51;;;;;;;8.15;2.40;;;;;;;;;;5034875;28;20052;-83
2023/10/07 13:56:23;;;;;;;5.57;1.90;;;;;;;;;;5031906;28;20531;-83
2023/10/07 13:58:48;;;;;;;6.15;2.65;;;;;;;;;;5031806;28;20045;-82
2023/10/07 14:01:15;;;;;;;5.85;2.20;;;;;;;;;;5033308;28;20491;-82
2023/10/07 14:03:40;;;;;;;7.40;2.35;;;;;;;;;;5032884;28;20117;-82
2023/10/07 14:06:12;;;;;;;5.60;2.17;;;;;;;;;;5034321;28;20049;-82
2023/10/07 14:08:43;;;;;;;6.80;2.70;;;;;;;;;;5018557;28;20481;-82
2023/10/07 14:11:09;;;;;;;9.00;2.40;;;;;;;;;;5034091;28;20022;-83
2023/10/07 14:13:35;;;;;;;8.57;2.75;;;;;;;;;;5032725;28;20453;-83
2023/10/07 14:16:07;;;;;;;9.25;2.13;;;;;;;;;;5032945;28;20041;-83
2023/10/07 14:18:34;;;;;;;5.28;2.13;;;;;;;;;;5031248;28;20044;-83
2023/10/07 14:21:06;;;;;;;6.03;1.83;;;;;;;;;;5032741;28;20516;-83
2023/10/07 14:23:32;;;;;;;6.00;2.65;;;;;;;;;;5034047;28;20040;-83
2023/10/07 14:26:02;;;;;;;5.40;2.20;;;;;;;;;;5033903;28;20029;-82
2023/10/07 14:28:28;;;;;;;7.85;2.20;;;;;;;;;;5031994;28;20080;-83
2023/10/07 14:30:54;;;;;;;7.43;3.10;;;;;;;;;;5032673;28;20046;-83
2023/10/07 14:33:20;;;;;;;5.10;1.98;;;;;;;;;;5035084;28;20037;-82
2023/10/07 14:35:47;;;;;;;9.05;2.00;;;;;;;;;;5033648;28;20033;-83
2023/10/07 14:38:12;;;;;;;6.82;2.40;;;;;;;;;;5032128;28;20033;-83
2023/10/07 14:40:38;;;;;;;7.60;2.10;;;;;;;;;;5033867;28;20447;-83
2023/10/07 14:43:06;;;;;;;6.05;1.92;;;;;;;;;;5031712;28;20041;-83
2023/10/07 14:45:34;;;;;;;8.82;2.38;;;;;;;;;;5040967;28;20048;-83
2023/10/07 14:48:00;;;;;;;5.40;2.40;;;;;;;;;;5032568;28;20128;-83
2023/10/07 14:50:26;;;;;;;7.43;2.15;;;;;;;;;;5031147;28;20513;-84
2023/10/07 14:52:53;;;;;;;5.45;2.15;;;;;;;;;;5033727;28;20041;-84
2023/10/07 14:55:18;;;;;;;6.30;2.63;;;;;;;;;;5032894;28;20537;-83
2023/10/07 14:57:45;;;;;;;6.28;2.10;;;;;;;;;;5033389;28;20037;-83
2023/10/07 15:00:10;;;;;;;9.70;2.20;;;;;;;;;;5033022;28;20056;-84
2023/10/07 15:02:36;;;;;;;5.85;2.30;;;;;;;;;;5033394;28;20488;-83
2023/10/07 15:05:01;;;;;;;6.30;2.47;;;;;;;;;;5033298;28;20044;-84
2023/10/07 15:07:28;;;;;;;6.07;2.22;;;;;;;;;;5032085;28;20056;-83
2023/10/07 15:09:55;;;;;;;6.30;1.98;;;;;;;;;;5032645;28;20489;-83
2023/10/07 15:12:21;;;;;;;5.28;2.13;;;;;;;;;;5032075;28;20043;-84
2023/10/07 15:14:46;;;;;;;6.10;2.45;;;;;;;;;;5029023;28;20124;-83
2023/10/07 15:17:12;;;;;;;5.30;2.55;;;;;;;;;;5033131;28;20033;-83
2023/10/07 15:19:37;;;;;;;5.63;2.15;;;;;;;;;;5031681;28;20029;-83
2023/10/07 15:22:05;;;;;;;5.30;2.47;;;;;;;;;;5040556;28;20041;-83